sensor_id;sensor_type;location;lat;lon;timestamp;pressure;altitude;pressure_sealevel;temperature;humidity
48154;BME280;33942;49.272;14.452;2022-08-01T11:28:18;96959.24;;;27.96;40.54
48154;BME280;33942;49.272;14.452;2022-08-01T11:30:48;96955.77;;;30.17;35.27
48154;BME280;33942;49.272;14.452;2022-08-01T11:33:17;96954.10;;;32.27;32.97
48154;BME280;33942;49.272;14.452;2022-08-01T11:36:17;96960.06;;;32.69;32.79
48154;BME280;33942;49.272;14.452;2022-08-01T11:38:46;96958.91;;;32.38;29.45
48154;BME280;33942;49.272;14.452;2022-08-01T11:41:15;96958.25;;;32.01;30.28
48154;BME280;33942;49.272;14.452;2022-08-01T11:44:03;96961.22;;;32.11;31.39
48154;BME280;33942;49.272;14.452;2022-08-01T11:47:05;96962.60;;;32.54;29.40
48154;BME280;33942;49.272;14.452;2022-08-01T11:49:44;96956.13;;;33.04;30.13
48154;BME280;33942;49.272;14.452;2022-08-01T11:52:14;96961.63;;;33.36;27.85
48154;BME280;33942;49.272;14.452;2022-08-01T11:54:43;96960.36;;;32.90;28.49
48154;BME280;33942;49.272;14.452;2022-08-01T11:57:12;96955.06;;;32.32;29.32
48154;BME280;33942;49.272;14.452;2022-08-01T11:59:42;96959.95;;;32.91;29.73
48154;BME280;33942;49.272;14.452;2022-08-01T12:02:19;96960.19;;;33.09;27.29
48154;BME280;33942;49.272;14.452;2022-08-01T12:04:53;96966.55;;;32.95;28.78
48154;BME280;33942;49.272;14.452;2022-08-01T12:07:21;96961.75;;;32.57;29.59
48154;BME280;33942;49.272;14.452;2022-08-01T12:09:55;96960.43;;;32.21;28.73
48154;BME280;33942;49.272;14.452;2022-08-01T12:12:23;96959.03;;;31.53;30.35
48154;BME280;33942;49.272;14.452;2022-08-01T12:14:56;96959.01;;;31.35;29.62
48154;BME280;33942;49.272;14.452;2022-08-01T12:17:40;96962.28;;;30.86;30.29
48154;BME280;33942;49.272;14.452;2022-08-01T12:20:10;96954.14;;;30.51;31.50
48154;BME280;33942;49.272;14.452;2022-08-01T12:22:38;96959.18;;;29.96;32.58
48154;BME280;33942;49.272;14.452;2022-08-01T12:25:06;96950.54;;;30.49;31.28
48154;BME280;33942;49.272;14.452;2022-08-01T12:27:35;96945.72;;;31.52;29.54
48154;BME280;33942;49.272;14.452;2022-08-01T12:30:06;96946.25;;;32.10;31.46
48154;BME280;33942;49.272;14.452;2022-08-01T12:32:35;96944.82;;;32.54;27.19
48154;BME280;33942;49.272;14.452;2022-08-01T12:35:04;96949.32;;;33.24;27.48
48154;BME280;33942;49.272;14.452;2022-08-01T12:37:34;96963.76;;;33.14;26.41
48154;BME280;33942;49.272;14.452;2022-08-01T12:40:06;96952.76;;;32.27;29.00
48154;BME280;33942;49.272;14.452;2022-08-01T12:42:37;96953.46;;;32.51;27.97
48154;BME280;33942;49.272;14.452;2022-08-01T12:45:05;96948.74;;;32.31;28.20
48154;BME280;33942;49.272;14.452;2022-08-01T12:47:33;96945.18;;;32.78;28.20
48154;BME280;33942;49.272;14.452;2022-08-01T12:50:03;96943.85;;;32.92;28.40
48154;BME280;33942;49.272;14.452;2022-08-01T12:52:31;96949.26;;;33.03;27.48
48154;BME280;33942;49.272;14.452;2022-08-01T12:55:10;96951.28;;;33.27;28.13
48154;BME280;33942;49.272;14.452;2022-08-01T12:57:39;96935.89;;;32.86;28.70
48154;BME280;33942;49.272;14.452;2022-08-01T13:00:13;96938.40;;;33.54;29.17
48154;BME280;33942;49.272;14.452;2022-08-01T13:02:40;96943.14;;;32.81;28.16
48154;BME280;33942;49.272;14.452;2022-08-01T13:05:10;96932.55;;;32.80;29.16
48154;BME280;33942;49.272;14.452;2022-08-01T13:07:44;96938.14;;;32.67;26.29
48154;BME280;33942;49.272;14.452;2022-08-01T13:10:14;96944.68;;;32.39;26.85
48154;BME280;33942;49.272;14.452;2022-08-01T13:12:52;96929.69;;;31.91;28.96
48154;BME280;33942;49.272;14.452;2022-08-01T13:15:24;96933.08;;;31.27;27.48
48154;BME280;33942;49.272;14.452;2022-08-01T13:17:53;96931.57;;;31.53;27.59
48154;BME280;33942;49.272;14.452;2022-08-01T13:20:24;96918.83;;;31.54;29.18
48154;BME280;33942;49.272;14.452;2022-08-01T13:22:51;96919.12;;;32.02;27.67
48154;BME280;33942;49.272;14.452;2022-08-01T13:25:20;96918.51;;;32.58;27.65
48154;BME280;33942;49.272;14.452;2022-08-01T13:27:48;96923.03;;;32.01;28.33
48154;BME280;33942;49.272;14.452;2022-08-01T13:30:21;96919.34;;;32.38;27.80
48154;BME280;33942;49.272;14.452;2022-08-01T13:32:58;96919.56;;;32.29;28.17
48154;BME280;33942;49.272;14.452;2022-08-01T13:35:28;96917.32;;;32.36;27.69
48154;BME280;33942;49.272;14.452;2022-08-01T13:37:57;96914.68;;;32.28;29.24
48154;BME280;33942;49.272;14.452;2022-08-01T13:40:27;96916.92;;;32.37;28.68
48154;BME280;33942;49.272;14.452;2022-08-01T13:42:55;96921.01;;;32.75;28.21
48154;BME280;33942;49.272;14.452;2022-08-01T13:45:23;96916.10;;;32.96;29.12
48154;BME280;33942;49.272;14.452;2022-08-01T13:47:51;96916.83;;;33.39;27.73
48154;BME280;33942;49.272;14.452;2022-08-01T13:50:20;96921.64;;;32.63;28.05
48154;BME280;33942;49.272;14.452;2022-08-01T13:52:49;96922.44;;;32.21;28.55
48154;BME280;33942;49.272;14.452;2022-08-01T13:55:17;96914.61;;;32.55;27.80
48154;BME280;33942;49.272;14.452;2022-08-01T13:57:44;96914.76;;;32.61;28.03
48154;BME280;33942;49.272;14.452;2022-08-01T14:00:12;96918.03;;;32.89;27.45
48154;BME280;33942;49.272;14.452;2022-08-01T14:02:39;96930.12;;;32.49;28.32
48154;BME280;33942;49.272;14.452;2022-08-01T14:05:07;96933.35;;;31.79;27.19
48154;BME280;33942;49.272;14.452;2022-08-01T14:07:34;96930.30;;;31.23;27.88
48154;BME280;33942;49.272;14.452;2022-08-01T14:10:02;96935.86;;;31.39;28.22
48154;BME280;33942;49.272;14.452;2022-08-01T14:12:29;96930.17;;;31.55;27.99
48154;BME280;33942;49.272;14.452;2022-08-01T14:14:57;96930.86;;;31.18;27.62
48154;BME280;33942;49.272;14.452;2022-08-01T14:17:24;96928.23;;;31.51;27.86
48154;BME280;33942;49.272;14.452;2022-08-01T14:19:51;96928.88;;;31.92;28.21
48154;BME280;33942;49.272;14.452;2022-08-01T14:22:19;96931.84;;;32.19;28.65
48154;BME280;33942;49.272;14.452;2022-08-01T14:24:46;96932.95;;;32.13;27.10
48154;BME280;33942;49.272;14.452;2022-08-01T14:27:14;96936.24;;;31.74;27.28
48154;BME280;33942;49.272;14.452;2022-08-01T14:29:41;96937.36;;;31.42;27.82
48154;BME280;33942;49.272;14.452;2022-08-01T14:32:09;96938.83;;;31.23;29.06
48154;BME280;33942;49.272;14.452;2022-08-01T14:34:36;96938.24;;;30.94;28.84
48154;BME280;33942;49.272;14.452;2022-08-01T14:37:04;96941.85;;;31.11;29.24
48154;BME280;33942;49.272;14.452;2022-08-01T14:39:31;96936.22;;;31.08;30.31
48154;BME280;33942;49.272;14.452;2022-08-01T14:41:59;96943.30;;;31.03;30.88
48154;BME280;33942;49.272;14.452;2022-08-01T14:44:26;96944.58;;;31.23;31.55
48154;BME280;33942;49.272;14.452;2022-08-01T14:46:54;96941.13;;;31.65;31.20
48154;BME280;33942;49.272;14.452;2022-08-01T14:49:21;96939.66;;;31.71;30.60
48154;BME280;33942;49.272;14.452;2022-08-01T14:51:49;96941.26;;;31.88;31.28
48154;BME280;33942;49.272;14.452;2022-08-01T14:54:16;96946.97;;;31.88;30.69
48154;BME280;33942;49.272;14.452;2022-08-01T14:56:43;96947.30;;;32.64;31.58
48154;BME280;33942;49.272;14.452;2022-08-01T14:59:11;96944.93;;;32.52;29.67
48154;BME280;33942;49.272;14.452;2022-08-01T15:01:38;96938.43;;;31.92;29.57
48154;BME280;33942;49.272;14.452;2022-08-01T15:04:06;96938.08;;;31.98;29.67
48154;BME280;33942;49.272;14.452;2022-08-01T15:06:34;96944.24;;;32.49;30.07
48154;BME280;33942;49.272;14.452;2022-08-01T15:09:01;96941.91;;;32.84;29.90
48154;BME280;33942;49.272;14.452;2022-08-01T15:11:28;96944.02;;;32.22;29.41
48154;BME280;33942;49.272;14.452;2022-08-01T15:13:56;96942.12;;;32.33;30.12
48154;BME280;33942;49.272;14.452;2022-08-01T15:16:23;96939.60;;;33.02;29.70
48154;BME280;33942;49.272;14.452;2022-08-01T15:18:50;96943.44;;;33.25;28.57
48154;BME280;33942;49.272;14.452;2022-08-01T15:21:18;96945.11;;;33.61;30.04
48154;BME280;33942;49.272;14.452;2022-08-01T15:23:46;96949.45;;;33.61;29.45
48154;BME280;33942;49.272;14.452;2022-08-01T15:26:13;96949.02;;;33.18;28.49
48154;BME280;33942;49.272;14.452;2022-08-01T15:28:41;96952.49;;;33.18;28.00
48154;BME280;33942;49.272;14.452;2022-08-01T15:31:08;96953.30;;;33.92;29.37
48154;BME280;33942;49.272;14.452;2022-08-01T15:33:36;96950.75;;;34.57;28.80
48154;BME280;33942;49.272;14.452;2022-08-01T15:36:03;96947.47;;;34.80;27.41
48154;BME280;33942;49.272;14.452;2022-08-01T15:38:30;96946.91;;;35.58;27.34
48154;BME280;33942;49.272;14.452;2022-08-01T15:40:58;96945.89;;;36.19;27.14
48154;BME280;33942;49.272;14.452;2022-08-01T15:43:25;96953.55;;;36.42;26.78
48154;BME280;33942;49.272;14.452;2022-08-01T15:45:53;96953.69;;;37.09;23.80
48154;BME280;33942;49.272;14.452;2022-08-01T15:48:20;96948.65;;;36.51;23.74
48154;BME280;33942;49.272;14.452;2022-08-01T15:50:48;96950.04;;;36.52;24.92
48154;BME280;33942;49.272;14.452;2022-08-01T15:53:16;96950.37;;;35.95;24.08
48154;BME280;33942;49.272;14.452;2022-08-01T15:55:43;96954.97;;;35.63;24.22
48154;BME280;33942;49.272;14.452;2022-08-01T15:58:11;96948.92;;;35.07;24.35
48154;BME280;33942;49.272;14.452;2022-08-01T16:00:39;96943.96;;;35.01;24.94
48154;BME280;33942;49.272;14.452;2022-08-01T16:03:06;96945.22;;;35.08;25.73
48154;BME280;33942;49.272;14.452;2022-08-01T16:05:33;96943.53;;;34.95;25.40
48154;BME280;33942;49.272;14.452;2022-08-01T16:08:00;96942.39;;;34.59;26.19
48154;BME280;33942;49.272;14.452;2022-08-01T16:10:28;96938.35;;;35.36;26.90
48154;BME280;33942;49.272;14.452;2022-08-01T16:12:55;96934.83;;;35.57;25.07
48154;BME280;33942;49.272;14.452;2022-08-01T16:15:23;96932.19;;;35.79;25.18
48154;BME280;33942;49.272;14.452;2022-08-01T16:17:51;96933.18;;;36.44;24.70
48154;BME280;33942;49.272;14.452;2022-08-01T16:20:18;96932.19;;;36.69;24.61
48154;BME280;33942;49.272;14.452;2022-08-01T16:23:51;96937.39;;;37.33;24.92
48154;BME280;33942;49.272;14.452;2022-08-01T16:26:18;96937.94;;;36.73;25.49
48154;BME280;33942;49.272;14.452;2022-08-01T16:28:46;96937.16;;;36.31;25.87
48154;BME280;33942;49.272;14.452;2022-08-01T16:31:13;96943.58;;;35.47;26.46
48154;BME280;33942;49.272;14.452;2022-08-01T16:33:41;96949.54;;;35.11;27.02
48154;BME280;33942;49.272;14.452;2022-08-01T16:36:09;96957.86;;;34.58;27.79
48154;BME280;33942;49.272;14.452;2022-08-01T16:38:39;96965.08;;;34.58;28.16
48154;BME280;33942;49.272;14.452;2022-08-01T16:41:06;96973.07;;;34.38;28.31
48154;BME280;33942;49.272;14.452;2022-08-01T16:43:34;96983.68;;;33.71;28.55
48154;BME280;33942;49.272;14.452;2022-08-01T16:46:01;96991.97;;;33.22;29.14
48154;BME280;33942;49.272;14.452;2022-08-01T16:48:28;97004.27;;;32.51;29.81
48154;BME280;33942;49.272;14.452;2022-08-01T16:50:56;97012.99;;;31.52;31.10
48154;BME280;33942;49.272;14.452;2022-08-01T16:53:23;97020.20;;;30.90;32.70
48154;BME280;33942;49.272;14.452;2022-08-01T16:55:50;97023.08;;;29.74;34.44
48154;BME280;33942;49.272;14.452;2022-08-01T16:58:21;97023.77;;;29.54;34.96
48154;BME280;33942;49.272;14.452;2022-08-01T17:00:49;97034.03;;;29.49;35.64
48154;BME280;33942;49.272;14.452;2022-08-01T17:03:16;97043.46;;;29.26;36.23
48154;BME280;33942;49.272;14.452;2022-08-01T17:05:43;97051.57;;;28.57;37.01
